sensor_id;sensor_type;location;lat;lon;timestamp;temperature;humidity
49821;DHT22;36893;52.520;13.450;2022-09-16T00:02:37;24.20;66.00
49821;DHT22;36893;52.520;13.450;2022-09-16T00:12:39;24.20;66.00
49821;DHT22;36893;52.520;13.450;2022-09-16T00:22:40;24.20;66.00
49821;DHT22;36893;52.520;13.450;2022-09-16T00:32:40;24.20;65.90
49821;DHT22;36893;52.520;13.450;2022-09-16T00:42:41;24.20;66.00
49821;DHT22;36893;52.520;13.450;2022-09-16T00:52:42;24.10;65.90
49821;DHT22;36893;52.520;13.450;2022-09-16T01:02:43;24.10;65.90
49821;DHT22;36893;52.520;13.450;2022-09-16T01:12:48;24.10;65.90
49821;DHT22;36893;52.520;13.450;2022-09-16T01:44:19;24.10;65.90
49821;DHT22;36893;52.520;13.450;2022-09-16T01:54:48;24.10;66.00
49821;DHT22;36893;52.520;13.450;2022-09-16T02:05:12;24.10;65.90
49821;DHT22;36893;52.520;13.450;2022-09-16T02:15:18;24.10;65.80
49821;DHT22;36893;52.520;13.450;2022-09-16T02:25:22;24.10;65.90
49821;DHT22;36893;52.520;13.450;2022-09-16T02:35:24;24.00;65.80
49821;DHT22;36893;52.520;13.450;2022-09-16T02:45:31;24.00;65.80
49821;DHT22;36893;52.520;13.450;2022-09-16T02:56:02;24.00;66.60
49821;DHT22;36893;52.520;13.450;2022-09-16T03:16:33;24.00;66.00
49821;DHT22;36893;52.520;13.450;2022-09-16T03:26:56;24.00;66.10
49821;DHT22;36893;52.520;13.450;2022-09-16T03:37:03;24.00;66.20
49821;DHT22;36893;52.520;13.450;2022-09-16T03:47:07;24.00;66.20
49821;DHT22;36893;52.520;13.450;2022-09-16T03:57:08;24.00;66.20
49821;DHT22;36893;52.520;13.450;2022-09-16T04:07:09;23.90;66.20
49821;DHT22;36893;52.520;13.450;2022-09-16T04:17:09;23.90;66.10
49821;DHT22;36893;52.520;13.450;2022-09-16T04:27:10;23.90;66.20
49821;DHT22;36893;52.520;13.450;2022-09-16T04:37:11;23.90;66.20
49821;DHT22;36893;52.520;13.450;2022-09-16T04:47:11;23.90;66.30
49821;DHT22;36893;52.520;13.450;2022-09-16T04:57:12;23.90;66.00
49821;DHT22;36893;52.520;13.450;2022-09-16T05:07:12;23.90;66.10
49821;DHT22;36893;52.520;13.450;2022-09-16T05:17:13;23.90;66.90
49821;DHT22;36893;52.520;13.450;2022-09-16T05:27:14;23.90;66.00
49821;DHT22;36893;52.520;13.450;2022-09-16T05:37:16;23.90;66.00
49821;DHT22;36893;52.520;13.450;2022-09-16T05:47:16;23.90;66.00
49821;DHT22;36893;52.520;13.450;2022-09-16T05:57:17;23.90;66.00
49821;DHT22;36893;52.520;13.450;2022-09-16T06:07:18;23.90;66.60
49821;DHT22;36893;52.520;13.450;2022-09-16T06:17:18;23.90;66.00
49821;DHT22;36893;52.520;13.450;2022-09-16T06:27:19;23.90;66.00
49821;DHT22;36893;52.520;13.450;2022-09-16T06:37:20;23.90;66.00
49821;DHT22;36893;52.520;13.450;2022-09-16T06:47:20;23.90;65.90
49821;DHT22;36893;52.520;13.450;2022-09-16T06:57:21;23.90;66.00
49821;DHT22;36893;52.520;13.450;2022-09-16T07:07:22;23.90;65.90
49821;DHT22;36893;52.520;13.450;2022-09-16T07:17:23;23.90;65.90
49821;DHT22;36893;52.520;13.450;2022-09-16T07:27:26;23.90;65.80
49821;DHT22;36893;52.520;13.450;2022-09-16T07:37:27;23.90;65.80
49821;DHT22;36893;52.520;13.450;2022-09-16T07:47:27;23.90;65.80
49821;DHT22;36893;52.520;13.450;2022-09-16T07:57:28;23.90;65.80
49821;DHT22;36893;52.520;13.450;2022-09-16T08:07:29;24.00;65.80
49821;DHT22;36893;52.520;13.450;2022-09-16T08:17:30;24.00;65.80
49821;DHT22;36893;52.520;13.450;2022-09-16T08:27:34;24.00;66.00
49821;DHT22;36893;52.520;13.450;2022-09-16T08:37:35;24.00;66.10
49821;DHT22;36893;52.520;13.450;2022-09-16T08:58:05;24.10;66.20
49821;DHT22;36893;52.520;13.450;2022-09-16T09:08:16;24.10;66.20
49821;DHT22;36893;52.520;13.450;2022-09-16T09:39:29;24.20;66.10
49821;DHT22;36893;52.520;13.450;2022-09-16T09:49:54;24.30;66.00
49821;DHT22;36893;52.520;13.450;2022-09-16T10:00:17;24.40;65.90
49821;DHT22;36893;52.520;13.450;2022-09-16T10:10:23;24.40;65.90
49821;DHT22;36893;52.520;13.450;2022-09-16T10:20:29;24.30;65.70
49821;DHT22;36893;52.520;13.450;2022-09-16T10:30:47;24.40;64.50
49821;DHT22;36893;52.520;13.450;2022-09-16T10:41:25;24.40;62.80
49821;DHT22;36893;52.520;13.450;2022-09-16T10:51:31;24.40;61.40
49821;DHT22;36893;52.520;13.450;2022-09-16T11:22:46;24.40;60.20
49821;DHT22;36893;52.520;13.450;2022-09-16T11:33:12;24.30;60.30
49821;DHT22;36893;52.520;13.450;2022-09-16T12:04:34;24.30;60.80
49821;DHT22;36893;52.520;13.450;2022-09-16T12:14:43;24.40;60.90
49821;DHT22;36893;52.520;13.450;2022-09-16T12:25:01;24.40;61.00
49821;DHT22;36893;52.520;13.450;2022-09-16T12:35:19;24.40;60.70
49821;DHT22;36893;52.520;13.450;2022-09-16T12:45:40;24.30;59.90
49821;DHT22;36893;52.520;13.450;2022-09-16T12:56:23;24.40;60.30
49821;DHT22;36893;52.520;13.450;2022-09-16T13:06:35;24.40;60.50
49821;DHT22;36893;52.520;13.450;2022-09-16T13:16:37;24.40;60.80
49821;DHT22;36893;52.520;13.450;2022-09-16T13:26:41;24.50;61.00
49821;DHT22;36893;52.520;13.450;2022-09-16T13:36:42;24.50;61.80
49821;DHT22;36893;52.520;13.450;2022-09-16T13:46:43;24.50;61.20
49821;DHT22;36893;52.520;13.450;2022-09-16T14:07:37;24.50;61.40
49821;DHT22;36893;52.520;13.450;2022-09-16T14:18:12;24.50;61.50
49821;DHT22;36893;52.520;13.450;2022-09-16T14:28:23;24.50;61.10
49821;DHT22;36893;52.520;13.450;2022-09-16T14:38:54;24.40;59.50
49821;DHT22;36893;52.520;13.450;2022-09-16T14:48:57;24.40;58.20
49821;DHT22;36893;52.520;13.450;2022-09-16T14:58:58;24.30;58.40
49821;DHT22;36893;52.520;13.450;2022-09-16T15:09:03;24.30;58.40
49821;DHT22;36893;52.520;13.450;2022-09-16T15:19:19;24.30;58.30
49821;DHT22;36893;52.520;13.450;2022-09-16T15:49:33;24.30;58.20
49821;DHT22;36893;52.520;13.450;2022-09-16T15:59:54;24.30;58.40
49821;DHT22;36893;52.520;13.450;2022-09-16T16:10:26;24.30;58.50
49821;DHT22;36893;52.520;13.450;2022-09-16T16:20:30;24.30;58.60
49821;DHT22;36893;52.520;13.450;2022-09-16T16:30:32;24.30;58.80
49821;DHT22;36893;52.520;13.450;2022-09-16T16:40:33;24.30;58.90
49821;DHT22;36893;52.520;13.450;2022-09-16T16:50:33;24.30;59.00
49821;DHT22;36893;52.520;13.450;2022-09-16T17:00:34;24.20;59.10
49821;DHT22;36893;52.520;13.450;2022-09-16T17:10:35;24.20;59.20
49821;DHT22;36893;52.520;13.450;2022-09-16T17:20:35;24.20;59.10
49821;DHT22;36893;52.520;13.450;2022-09-16T17:30:36;24.20;59.20
49821;DHT22;36893;52.520;13.450;2022-09-16T17:40:42;24.20;59.40
49821;DHT22;36893;52.520;13.450;2022-09-16T17:50:42;24.20;59.00
49821;DHT22;36893;52.520;13.450;2022-09-16T18:00:43;24.20;58.70
49821;DHT22;36893;52.520;13.450;2022-09-16T18:10:51;24.20;58.80
49821;DHT22;36893;52.520;13.450;2022-09-16T18:20:53;24.20;58.90
49821;DHT22;36893;52.520;13.450;2022-09-16T18:31:05;24.20;59.00
49821;DHT22;36893;52.520;13.450;2022-09-16T18:41:16;24.20;59.10
49821;DHT22;36893;52.520;13.450;2022-09-16T18:51:24;24.10;59.20
49821;DHT22;36893;52.520;13.450;2022-09-16T19:01:28;24.20;59.30
49821;DHT22;36893;52.520;13.450;2022-09-16T19:11:31;24.10;59.40
49821;DHT22;36893;52.520;13.450;2022-09-16T19:21:32;24.10;59.40
49821;DHT22;36893;52.520;13.450;2022-09-16T19:31:35;24.10;59.50
49821;DHT22;36893;52.520;13.450;2022-09-16T19:41:38;24.10;59.60
49821;DHT22;36893;52.520;13.450;2022-09-16T19:51:39;24.10;59.60
49821;DHT22;36893;52.520;13.450;2022-09-16T20:01:41;24.10;59.60
49821;DHT22;36893;52.520;13.450;2022-09-16T20:11:45;24.10;59.60
49821;DHT22;36893;52.520;13.450;2022-09-16T20:21:46;24.10;59.70
49821;DHT22;36893;52.520;13.450;2022-09-16T20:31:48;24.10;59.60
49821;DHT22;36893;52.520;13.450;2022-09-16T20:41:49;24.10;59.70
49821;DHT22;36893;52.520;13.450;2022-09-16T20:51:51;24.10;59.70
49821;DHT22;36893;52.520;13.450;2022-09-16T21:01:52;24.10;59.70
49821;DHT22;36893;52.520;13.450;2022-09-16T21:11:53;24.10;60.00
49821;DHT22;36893;52.520;13.450;2022-09-16T21:21:53;24.10;59.80
49821;DHT22;36893;52.520;13.450;2022-09-16T21:31:54;24.00;59.70
49821;DHT22;36893;52.520;13.450;2022-09-16T21:41:55;24.00;59.80
49821;DHT22;36893;52.520;13.450;2022-09-16T21:51:57;24.10;59.90
49821;DHT22;36893;52.520;13.450;2022-09-16T22:01:58;24.00;59.80
49821;DHT22;36893;52.520;13.450;2022-09-16T22:11:59;24.00;59.90
49821;DHT22;36893;52.520;13.450;2022-09-16T22:22:00;24.00;59.90
49821;DHT22;36893;52.520;13.450;2022-09-16T22:32:01;24.00;59.90
49821;DHT22;36893;52.520;13.450;2022-09-16T22:42:02;24.00;59.90
49821;DHT22;36893;52.520;13.450;2022-09-16T22:52:02;24.00;60.00
49821;DHT22;36893;52.520;13.450;2022-09-16T23:02:03;24.00;60.00
49821;DHT22;36893;52.520;13.450;2022-09-16T23:12:04;24.00;60.10
49821;DHT22;36893;52.520;13.450;2022-09-16T23:22:05;24.00;60.10
49821;DHT22;36893;52.520;13.450;2022-09-16T23:32:06;24.00;60.10
49821;DHT22;36893;52.520;13.450;2022-09-16T23:42:06;24.00;60.10
49821;DHT22;36893;52.520;13.450;2022-09-16T23:52:07;24.00;60.10
